Terminal Aerodrome Forecast
Issued by NWS

Home | Current Version | Previous Version | Text Only | Print | Product List | Glossary On
Versions: 1 2 3 4 5 6 7 8 9 10 11 12 13 14 15 16 17 18 19 20 21 22 23 24 25 26 27 28
000
FTUS44 KOUN 032325
TAFHBR
TAF
KHBR 032325Z 0400/0424 16009KT P6SM FEW060 BKN100
      TEMPO 0403/0407 6SM -TSRA FEW030 BKN060CB
     FM040700 15006KT 5SM -SHRA SCT040 BKN060
     FM041000 17007KT P6SM SCT040 BKN100
     FM041600 18013G21KT P6SM SCT100 BKN250=

USA.gov is the U.S. government's official web portal to all federal, state and local government web resources and services.